Inverrary, Florida
Current Conditions -  °F | °C
As of 7:00 PM on Friday 21 Nov 2014 (Local Time) from KFXE Reporting Station
Overcast Overcast  
Wind Chill: 71°   Ceiling: 2500
Heat Index: 71°   Visibility: 10mi
Dew Point: 65°   Wind: 16mph
Humidity: 81%   Direction: 60°ENE
Pressure: 30.16"   Gusts: 22mph
Location:  26.1819°N, 80.2274°W
Report Text: KFXE 220000Z 06014G19KT 10SM OVC025 22/18 A3016 RMK AO2 T02170183
Loading
Personal Weather Stations






























Interactive Weather Map New forecast layout! Learn more

10-Day Weather Forecast

Advertisements
Track Severe Weather on mobile